Time;durP1;ratioP1;P1;durP2;ratioP2;P2;SDS_P1;SDS_P2;PMS_P1;PMS_P2;Temp;Humidity;BMP_temperature;BMP_pressure;BME280_temperature;BME280_humidity;BME280_pressure;Samples;Min_cycle;Max_cycle;Signal;HPM_P1;HPM_P2
2023/12/05 00:02:18;;;;;;;17.70;11.00;;;;;;;-147.86;100.00;46019.91;105913;1257;74141;-44
2023/12/05 00:04:45;;;;;;;18.10;10.30;;;;;;;-147.86;100.00;46021.09;105921;1257;64383;-44
2023/12/05 00:07:12;;;;;;;18.70;11.10;;;;;;;-147.86;100.00;46019.91;105899;1257;72725;-41
2023/12/05 00:09:39;;;;;;;19.30;12.10;;;;;;;-147.86;100.00;46021.08;105938;1257;61145;-42
2023/12/05 00:12:07;;;;;;;18.10;10.50;;;;;;;-147.86;100.00;46020.30;105900;1255;60443;-41
2023/12/05 00:14:34;;;;;;;20.00;11.20;;;;;;;-147.86;100.00;46024.21;105914;1257;72680;-44
2023/12/05 00:17:01;;;;;;;18.30;10.80;;;;;;;-147.86;100.00;46023.04;105881;1256;65337;-44
2023/12/05 00:19:28;;;;;;;23.10;11.80;;;;;;;-147.86;100.00;46024.22;105898;1257;72637;-42
2023/12/05 00:21:55;;;;;;;21.40;11.80;;;;;;;-147.86;100.00;46026.96;105866;1256;61255;-43
2023/12/05 00:24:23;;;;;;;21.30;11.70;;;;;;;-147.86;100.00;46027.35;105969;1257;59718;-47
2023/12/05 00:26:50;;;;;;;24.20;10.20;;;;;;;-147.86;100.00;46028.13;105885;1257;73629;-49
2023/12/05 00:29:17;;;;;;;21.20;11.50;;;;;;;-147.86;100.00;46031.27;105637;1258;65239;-46
2023/12/05 00:31:44;;;;;;;22.70;11.00;;;;;;;-147.86;100.00;46031.27;105716;1257;72701;-46
2023/12/05 00:34:11;;;;;;;17.70;11.30;;;;;;;-147.86;100.00;46033.63;105507;1260;61049;-46
2023/12/05 00:36:38;;;;;;;18.70;11.00;;;;;;;-147.86;100.00;46035.58;105538;1257;60517;-44
2023/12/05 00:39:05;;;;;;;20.40;11.40;;;;;;;-147.86;100.00;46037.54;105611;1257;73800;-45
2023/12/05 00:41:32;;;;;;;20.60;10.90;;;;;;;-147.86;100.00;46037.54;105701;1257;65386;-45
2023/12/05 00:43:59;;;;;;;18.00;10.70;;;;;;;-147.86;100.00;46041.85;105757;1256;72681;-42
2023/12/05 00:46:26;;;;;;;19.00;11.40;;;;;;;-147.86;100.00;46043.42;105671;1257;60442;-41
2023/12/05 00:48:53;;;;;;;20.00;11.90;;;;;;;-147.86;100.00;46042.63;105933;1254;60529;-40
2023/12/05 00:51:20;;;;;;;19.20;11.40;;;;;;;-147.86;100.00;46047.34;105843;1254;73833;-43
2023/12/05 00:53:48;;;;;;;22.00;11.60;;;;;;;-147.86;100.00;46048.12;105853;1266;65609;-49
2023/12/05 00:56:15;;;;;;;21.60;12.20;;;;;;;-147.86;100.00;46045.38;105872;1255;72621;-49
2023/12/05 00:58:42;;;;;;;21.30;11.80;;;;;;;-147.86;100.00;46044.99;105919;1257;61801;-46
2023/12/05 01:01:09;;;;;;;20.80;11.80;;;;;;;-147.86;100.00;46048.12;105898;1255;60440;-42
2023/12/05 01:03:36;;;;;;;18.40;11.20;;;;;;;-147.86;100.00;46047.73;105967;1257;73766;-42
2023/12/05 01:06:04;;;;;;;18.80;11.50;;;;;;;-147.86;100.00;46045.38;105891;1265;65551;-48
2023/12/05 01:08:31;;;;;;;26.70;12.10;;;;;;;-147.86;100.00;46047.34;105949;1254;72586;-44
2023/12/05 01:10:59;;;;;;;21.40;12.20;;;;;;;-147.86;100.00;46044.59;105715;1258;60453;-47
2023/12/05 01:13:26;;;;;;;23.40;12.50;;;;;;;-147.86;100.00;46047.34;105950;1255;60507;-45
2023/12/05 01:15:53;;;;;;;22.80;12.60;;;;;;;-147.86;100.00;46048.51;105888;1256;73831;-48
2023/12/05 01:18:20;;;;;;;22.00;12.00;;;;;;;-147.86;100.00;46047.73;105900;1256;65481;-46
2023/12/05 01:20:47;;;;;;;18.80;11.10;;;;;;;-147.86;100.00;46047.34;105869;1253;72625;-42
2023/12/05 01:23:14;;;;;;;21.40;11.50;;;;;;;-147.86;100.00;46048.51;105900;1257;60344;-44
2023/12/05 01:25:41;;;;;;;27.00;13.80;;;;;;;-147.86;100.00;46048.12;105909;1254;60437;-46
2023/12/05 01:28:08;;;;;;;23.40;13.10;;;;;;;-147.86;100.00;46048.12;105854;1254;73758;-45
2023/12/05 01:30:36;;;;;;;26.50;13.50;;;;;;;-147.86;100.00;46047.34;105913;1256;65380;-42
2023/12/05 01:33:02;;;;;;;22.20;13.10;;;;;;;-147.86;100.00;46045.77;105877;1255;72657;-42
2023/12/05 01:35:30;;;;;;;23.70;12.70;;;;;;;-147.86;100.00;46048.91;105956;1257;60309;-43
2023/12/05 01:37:57;;;;;;;27.20;12.90;;;;;;;-147.86;100.00;46047.34;105993;1254;60716;-45
2023/12/05 01:40:23;;;;;;;23.20;12.00;;;;;;;-147.86;100.00;46046.16;105981;1257;73847;-44
2023/12/05 01:42:50;;;;;;;23.00;12.90;;;;;;;-147.86;100.00;46045.38;105866;1257;65426;-45
2023/12/05 01:45:18;;;;;;;22.60;12.60;;;;;;;-147.86;100.00;46043.02;105871;1254;72659;-42
2023/12/05 01:47:45;;;;;;;25.80;12.40;;;;;;;-147.86;100.00;46046.16;105876;1257;61928;-44
2023/12/05 01:50:15;;;;;;;23.30;12.80;;;;;;;-147.86;100.00;46046.95;105672;1256;60441;-43
2023/12/05 01:52:46;;;;;;;25.90;13.20;;;;;;;-147.86;100.00;46051.26;105881;1257;72617;-43
2023/12/05 01:55:13;;;;;;;19.80;11.10;;;;;;;-147.86;100.00;46052.82;105863;1258;65333;-43
2023/12/05 01:57:40;;;;;;;23.40;12.20;;;;;;;-147.86;100.00;46054.00;105968;1257;72646;-44
2023/12/05 02:00:09;;;;;;;21.80;12.80;;;;;;;-147.86;100.00;46055.56;105857;1257;61113;-41
2023/12/05 02:02:40;;;;;;;25.10;12.60;;;;;;;-147.86;100.00;46056.35;105703;1258;60390;-44
2023/12/05 02:05:07;;;;;;;21.40;12.40;;;;;;;-147.86;100.00;46055.96;105934;1257;73973;-45
2023/12/05 02:07:35;;;;;;;22.90;12.10;;;;;;;-147.86;100.00;46057.52;105692;1255;64285;-43
2023/12/05 02:10:04;;;;;;;21.40;10.90;;;;;;;-147.86;100.00;46055.18;105752;1254;72468;-43
2023/12/05 02:12:31;;;;;;;22.10;11.90;;;;;;;-147.86;100.00;46052.83;105946;1256;60426;-45
2023/12/05 02:14:58;;;;;;;25.90;12.40;;;;;;;-147.86;100.00;46052.43;105959;1254;60437;-42
2023/12/05 02:17:35;;;;;;;23.70;12.20;;;;;;;-147.86;100.00;46050.47;105905;1254;72799;-43
2023/12/05 02:20:30;;;;;;;26.50;11.80;;;;;;;-147.86;100.00;46049.30;106012;1257;65551;-39
2023/12/05 02:23:00;;;;;;;23.90;12.60;;;;;;;-147.86;100.00;46048.51;105927;1257;72495;-41
2023/12/05 02:25:52;;;;;;;18.30;11.30;;;;;;;-147.86;100.00;46047.73;105962;1256;60421;-41
2023/12/05 02:28:19;;;;;;;21.10;12.10;;;;;;;-147.86;100.00;46048.51;105945;1255;60390;-43
2023/12/05 02:30:46;;;;;;;22.90;12.00;;;;;;;-147.86;100.00;46044.20;105710;1258;73889;-43
2023/12/05 02:33:13;;;;;;;18.00;11.20;;;;;;;-147.86;100.00;46042.24;106012;1254;65390;-44
2023/12/05 02:35:42;;;;;;;19.00;11.70;;;;;;;-147.86;100.00;46040.68;105866;1254;73085;-46
2023/12/05 02:38:13;;;;;;;22.50;12.40;;;;;;;-147.86;100.00;46037.15;105908;1257;60337;-41
2023/12/05 02:41:03;;;;;;;26.40;11.60;;;;;;;-147.86;100.00;46034.80;105939;1254;60744;-45
2023/12/05 02:43:39;;;;;;;22.00;12.30;;;;;;;-147.86;100.00;46034.80;105917;1257;73847;-40
2023/12/05 02:46:07;;;;;;;20.60;12.30;;;;;;;-147.86;100.00;46033.62;105728;1254;65630;-40
2023/12/05 02:48:36;;;;;;;24.40;12.50;;;;;;;-147.86;100.00;46027.74;105730;1254;72634;-45
2023/12/05 02:51:04;;;;;;;22.20;12.40;;;;;;;-147.86;100.00;46025.39;105716;1260;60351;-43
2023/12/05 02:53:31;;;;;;;25.10;13.50;;;;;;;-147.86;100.00;46022.65;105921;1254;60437;-44
2023/12/05 02:55:57;;;;;;;24.50;13.70;;;;;;;-147.86;100.00;46019.13;105970;1252;73847;-41
2023/12/05 02:58:24;;;;;;;26.50;14.20;;;;;;;-147.86;100.00;46006.20;105978;1258;65479;-42
2023/12/05 03:00:51;;;;;;;29.90;14.60;;;;;;;-147.86;100.00;45996.79;105915;1254;72373;-42
2023/12/05 03:03:19;;;;;;;25.10;14.20;;;;;;;-147.86;100.00;45986.60;105854;1254;61938;-40
2023/12/05 03:05:46;;;;;;;22.00;12.60;;;;;;;-147.86;100.00;45975.24;105883;1253;60540;-42
2023/12/05 03:08:13;;;;;;;26.00;14.00;;;;;;;-147.86;100.00;45964.66;105912;1255;73691;-43
2023/12/05 03:10:40;;;;;;;25.00;14.50;;;;;;;-147.86;100.00;45952.90;105911;1257;64515;-43
2023/12/05 03:13:11;;;;;;;24.00;12.70;;;;;;;-147.86;100.00;45943.11;105889;1254;72723;-40
2023/12/05 03:15:37;;;;;;;27.20;12.50;;;;;;;-147.86;100.00;45924.30;105854;1257;60480;-42
2023/12/05 03:18:04;;;;;;;24.90;13.70;;;;;;;-147.86;100.00;45910.58;105929;1254;60425;-44
2023/12/05 03:20:32;;;;;;;25.70;14.30;;;;;;;-147.86;100.00;45900.00;105965;1257;73753;-40
2023/12/05 03:22:59;;;;;;;25.60;14.30;;;;;;;-147.86;100.00;45886.68;105955;1257;65343;-44
2023/12/05 03:25:26;;;;;;;22.60;12.30;;;;;;;-147.86;100.00;45874.93;105905;1254;72501;-42
2023/12/05 03:27:53;;;;;;;22.70;12.80;;;;;;;-147.86;100.00;45857.68;105678;1259;60402;-44
2023/12/05 03:30:20;;;;;;;22.80;12.60;;;;;;;-147.86;100.00;45849.46;105961;1254;60399;-44
2023/12/05 03:32:48;;;;;;;30.00;13.40;;;;;;;-147.86;100.00;45836.92;105934;1254;73966;-41
2023/12/05 03:35:14;;;;;;;27.50;14.30;;;;;;;-147.86;100.00;45818.50;105936;1257;65285;-43
2023/12/05 03:37:42;;;;;;;26.20;13.70;;;;;;;-147.86;100.00;45793.82;105859;1254;71383;-44
2023/12/05 03:40:10;;;;;;;23.80;13.50;;;;;;;-147.86;100.00;45775.40;105900;1256;60956;-43
2023/12/05 03:42:36;;;;;;;22.80;13.70;;;;;;;-147.86;100.00;45765.21;105914;1252;60526;-44
2023/12/05 03:45:05;;;;;;;22.70;12.90;;;;;;;-147.86;100.00;45756.20;105870;1257;73675;-43
2023/12/05 03:47:34;;;;;;;22.40;12.10;;;;;;;-147.86;100.00;45744.44;105921;1254;64218;-41
2023/12/05 03:50:00;;;;;;;24.50;12.60;;;;;;;-147.86;100.00;45732.29;105891;1254;71165;-41
2023/12/05 03:52:27;;;;;;;21.60;12.50;;;;;;;-147.86;100.00;45726.03;105927;1254;61731;-44
2023/12/05 03:54:54;;;;;;;26.30;13.70;;;;;;;-147.86;100.00;45725.64;105859;1252;60562;-40
2023/12/05 03:57:21;;;;;;;21.00;12.80;;;;;;;-147.86;100.00;45718.58;105734;1257;273015;-43
2023/12/05 03:59:48;;;;;;;23.90;13.30;;;;;;;-147.86;100.00;45720.14;105955;1256;65534;-43
2023/12/05 04:03:14;;;;;;;;;;;;;;;-147.86;100.00;45808.31;102844;1289;600645;-46
2023/12/05 04:05:42;;;;;;;21.50;12.40;;;;;;;-147.86;100.00;45775.79;105105;1263;59257;-45
2023/12/05 04:08:10;;;;;;;21.60;11.70;;;;;;;-147.86;100.00;45729.95;104871;1271;59245;-45
2023/12/05 04:10:38;;;;;;;25.50;13.80;;;;;;;-147.86;100.00;45715.45;104906;1263;70987;-44
2023/12/05 04:13:06;;;;;;;23.80;14.40;;;;;;;-147.86;100.00;45708.39;104911;1263;64394;-47
2023/12/05 04:15:34;;;;;;;25.00;14.70;;;;;;;-147.86;100.00;45706.43;104874;1270;72708;-46
2023/12/05 04:18:02;;;;;;;24.60;14.60;;;;;;;-147.86;100.00;45704.48;105034;1264;216032;-46
2023/12/05 04:20:30;;;;;;;23.50;14.10;;;;;;;-147.86;100.00;45705.65;105265;1268;59195;-44
2023/12/05 04:22:59;;;;;;;24.00;13.70;;;;;;;-147.86;100.00;45708.00;105212;1266;70332;-45
2023/12/05 04:25:26;;;;;;;28.90;14.50;;;;;;;-147.86;100.00;45711.14;105245;1268;64029;-42
2023/12/05 04:27:54;;;;;;;27.50;13.30;;;;;;;-147.86;100.00;45712.31;105928;1256;71113;-41
2023/12/05 04:30:22;;;;;;;28.00;15.70;;;;;;;-147.86;100.00;45722.11;105914;1256;60386;-42
2023/12/05 04:32:50;;;;;;;26.80;15.20;;;;;;;-147.86;100.00;45729.95;105875;1252;59950;-44
2023/12/05 04:35:18;;;;;;;29.40;15.60;;;;;;;-147.86;100.00;45742.09;105923;1250;72038;-41
2023/12/05 04:37:45;;;;;;;32.80;15.70;;;;;;;-147.86;100.00;45744.05;105881;1250;65254;-44
2023/12/05 04:40:13;;;;;;;24.30;13.60;;;;;;;-147.86;100.00;45749.14;105909;1252;72530;-46
2023/12/05 04:42:41;;;;;;;27.00;14.20;;;;;;;-147.86;100.00;45756.98;105881;1253;59735;-40
2023/12/05 04:45:09;;;;;;;27.70;14.80;;;;;;;-147.86;100.00;45762.46;105885;1256;59559;-41
2023/12/05 04:47:36;;;;;;;29.30;16.70;;;;;;;-147.86;100.00;45764.43;105868;1252;71826;-46
2023/12/05 04:50:05;;;;;;;27.10;16.30;;;;;;;-147.86;100.00;45769.91;105859;1256;65137;-41
2023/12/05 04:52:33;;;;;;;28.50;15.70;;;;;;;-147.86;100.00;45774.22;105883;1256;71689;-45
2023/12/05 04:55:01;;;;;;;28.60;15.50;;;;;;;-147.86;100.00;45781.67;105886;1251;59624;-42
2023/12/05 04:57:28;;;;;;;24.30;14.60;;;;;;;-147.86;100.00;45782.45;106030;1250;59961;-44
2023/12/05 04:59:56;;;;;;;31.20;15.20;;;;;;;-147.86;100.00;45781.66;105878;1250;71820;-41
2023/12/05 05:02:24;;;;;;;27.40;15.80;;;;;;;-147.86;100.00;45785.59;105856;1251;63894;-45
2023/12/05 05:04:52;;;;;;;31.20;17.30;;;;;;;-147.86;100.00;45780.49;105922;1253;71670;-45
2023/12/05 05:07:20;;;;;;;29.90;15.90;;;;;;;-147.86;100.00;45784.41;105883;1256;59692;-41
2023/12/05 05:09:49;;;;;;;26.40;14.60;;;;;;;-147.86;100.00;45789.89;105863;1251;59742;-40
2023/12/05 05:12:17;;;;;;;26.00;14.40;;;;;;;-147.86;100.00;45796.16;105929;1250;73003;-44
2023/12/05 05:14:45;;;;;;;27.90;16.20;;;;;;;-147.86;100.00;45793.81;105855;1259;64014;-44
2023/12/05 05:17:12;;;;;;;30.20;16.50;;;;;;;-147.86;100.00;45805.18;105928;1254;71420;-42
2023/12/05 05:19:40;;;;;;;29.50;17.50;;;;;;;-147.86;100.00;45809.88;105870;1251;59883;-46
2023/12/05 05:22:08;;;;;;;32.00;16.40;;;;;;;-147.86;100.00;45818.89;105896;1257;59606;-39
2023/12/05 05:24:35;;;;;;;29.50;16.10;;;;;;;-147.86;100.00;45826.73;105881;1258;73011;-44
2023/12/05 05:27:04;;;;;;;29.20;15.10;;;;;;;-147.86;100.00;45832.61;105895;1250;63914;-43
2023/12/05 05:29:33;;;;;;;30.70;16.70;;;;;;;-147.86;100.00;45838.09;105914;1251;70803;-41
2023/12/05 05:32:00;;;;;;;33.70;16.80;;;;;;;-147.86;100.00;45841.61;105877;1257;59641;-45
2023/12/05 05:34:28;;;;;;;31.90;17.60;;;;;;;-147.86;100.00;45847.10;105849;1251;60156;-42
2023/12/05 05:36:56;;;;;;;28.00;16.00;;;;;;;-147.86;100.00;45852.59;105869;1252;71862;-42
2023/12/05 05:39:24;;;;;;;29.30;16.90;;;;;;;-147.86;100.00;45857.29;105903;1251;63000;-44
2023/12/05 05:41:51;;;;;;;29.00;16.20;;;;;;;-147.86;100.00;45864.34;105891;1257;72708;-44
2023/12/05 05:44:19;;;;;;;29.90;15.90;;;;;;;-147.86;100.00;45869.04;105843;1254;60698;-45
2023/12/05 05:46:47;;;;;;;33.40;17.70;;;;;;;-147.86;100.00;45873.36;105843;1257;59532;-44
2023/12/05 05:49:14;;;;;;;33.60;17.90;;;;;;;-147.86;100.00;45881.98;105874;1250;71758;-41
2023/12/05 05:51:42;;;;;;;35.90;17.60;;;;;;;-147.86;100.00;45890.21;105942;1259;63912;-44
2023/12/05 05:54:10;;;;;;;34.00;16.80;;;;;;;-147.86;100.00;45894.52;105877;1257;73075;-43
2023/12/05 05:56:39;;;;;;;28.80;15.90;;;;;;;-147.86;100.00;45904.31;105844;1253;59614;-44
2023/12/05 05:59:07;;;;;;;28.10;16.10;;;;;;;-147.86;100.00;45901.96;105916;1257;59613;-43
2023/12/05 06:01:34;;;;;;;36.60;18.50;;;;;;;-147.86;100.00;45912.54;105851;1250;71880;-42
2023/12/05 06:04:02;;;;;;;32.60;19.10;;;;;;;-147.86;100.00;45923.51;105890;1251;64615;-44
2023/12/05 06:06:31;;;;;;;34.90;19.10;;;;;;;-147.86;100.00;45936.05;105939;1254;71200;-42
2023/12/05 06:08:59;;;;;;;33.30;16.70;;;;;;;-147.86;100.00;45948.59;105910;1254;59630;-45
2023/12/05 06:11:27;;;;;;;31.40;16.60;;;;;;;-147.86;100.00;45957.21;105989;1256;60020;-42
2023/12/05 06:13:54;;;;;;;30.50;17.40;;;;;;;-147.86;100.00;45970.53;105861;1256;73066;-41
2023/12/05 06:16:22;;;;;;;33.80;18.40;;;;;;;-147.86;100.00;45976.41;105893;1258;65266;-42
2023/12/05 06:18:49;;;;;;;34.70;19.10;;;;;;;-147.86;100.00;45989.74;105869;1259;71258;-43
2023/12/05 06:21:17;;;;;;;32.90;17.30;;;;;;;-147.86;100.00;46000.31;105861;1254;59657;-44
2023/12/05 06:23:45;;;;;;;30.80;16.50;;;;;;;-147.86;100.00;46013.64;105890;1256;60157;-43
2023/12/05 06:26:13;;;;;;;28.10;15.20;;;;;;;-147.86;100.00;46023.43;105901;1257;71844;-42
2023/12/05 06:28:40;;;;;;;32.00;16.70;;;;;;;-147.86;100.00;46035.98;105836;1250;63998;-45
2023/12/05 06:31:08;;;;;;;31.70;17.20;;;;;;;-147.86;100.00;46045.77;105844;1257;71425;-45
2023/12/05 06:33:36;;;;;;;28.20;17.50;;;;;;;-147.86;100.00;46057.52;105837;1257;59728;-43
2023/12/05 06:36:05;;;;;;;33.40;17.00;;;;;;;-147.86;100.00;46069.28;105903;1256;59609;-44
2023/12/05 06:38:32;;;;;;;30.90;17.00;;;;;;;-147.86;100.00;46076.73;105916;1257;72018;-43
2023/12/05 06:41:00;;;;;;;31.60;15.80;;;;;;;-147.86;100.00;46084.96;105847;1253;63905;-39
2023/12/05 06:43:27;;;;;;;34.10;17.00;;;;;;;-147.86;100.00;46091.23;105904;1259;71445;-46
2023/12/05 06:45:55;;;;;;;32.30;16.40;;;;;;;-147.86;100.00;46099.46;105869;1257;60464;-42
2023/12/05 06:48:23;;;;;;;32.70;17.50;;;;;;;-147.86;100.00;46104.55;105853;1257;59739;-42
2023/12/05 06:50:51;;;;;;;31.90;17.40;;;;;;;-147.86;100.00;46109.64;105855;1257;73076;-41
2023/12/05 06:53:19;;;;;;;32.60;17.80;;;;;;;-147.86;100.00;46113.56;105936;1257;63953;-40
2023/12/05 06:55:48;;;;;;;28.60;15.40;;;;;;;-147.86;100.00;46113.56;105927;1256;72692;-41
2023/12/05 06:58:16;;;;;;;28.40;15.90;;;;;;;-147.86;100.00;46113.56;105885;1254;60105;-42
2023/12/05 07:00:43;;;;;;;33.20;15.90;;;;;;;-147.86;100.00;46116.70;105883;1257;59624;-43
2023/12/05 07:03:12;;;;;;;32.80;16.60;;;;;;;-147.86;100.00;46115.13;105843;1257;71553;-41
2023/12/05 07:05:40;;;;;;;31.80;18.20;;;;;;;-147.86;100.00;46115.91;105866;1257;63930;-46
2023/12/05 07:08:09;;;;;;;30.40;16.70;;;;;;;-147.86;100.00;46113.95;105858;1267;72195;-45
2023/12/05 07:10:37;;;;;;;28.40;16.20;;;;;;;-147.86;100.00;46106.90;105899;1258;59630;-46
2023/12/05 07:13:06;;;;;;;28.10;16.30;;;;;;;-147.86;100.00;46106.90;105935;1256;59619;-39
2023/12/05 07:15:33;;;;;;;29.40;15.90;;;;;;;-147.86;100.00;46103.77;105873;1254;71870;-43
2023/12/05 07:18:02;;;;;;;29.30;16.50;;;;;;;-147.86;100.00;46099.06;105913;1257;64708;-42
2023/12/05 07:20:29;;;;;;;29.00;15.60;;;;;;;-147.86;100.00;46095.93;105919;1257;70360;-45
2023/12/05 07:22:57;;;;;;;30.40;17.20;;;;;;;-147.86;100.00;46092.01;105839;1256;60947;-45
2023/12/05 07:25:25;;;;;;;31.10;17.10;;;;;;;-147.86;100.00;46091.23;105830;1259;60016;-40
2023/12/05 07:27:52;;;;;;;35.90;16.80;;;;;;;-147.86;100.00;46082.61;105871;1251;72689;-43
2023/12/05 07:30:20;;;;;;;29.10;15.90;;;;;;;-147.86;100.00;46084.66;105889;1251;63973;-41
2023/12/05 07:32:48;;;;;;;31.60;15.90;;;;;;;-147.86;100.00;46064.97;105854;1257;59644;-44
2023/12/05 07:35:16;;;;;;;30.60;15.70;;;;;;;-147.86;100.00;46055.18;105949;1251;59701;-41
2023/12/05 07:37:44;;;;;;;27.60;15.20;;;;;;;-147.86;100.00;46041.46;105886;1257;60010;-43
2023/12/05 07:40:12;;;;;;;23.30;14.10;;;;;;;-147.86;100.00;46035.97;105862;1257;72083;-40
2023/12/05 07:42:40;;;;;;;35.10;16.60;;;;;;;-147.86;100.00;46027.74;105862;1251;65373;-42
2023/12/05 07:45:09;;;;;;;26.00;14.30;;;;;;;-147.86;100.00;46018.34;105891;1258;71417;-43
2023/12/05 07:47:36;;;;;;;25.80;14.60;;;;;;;-147.86;100.00;45997.96;105892;1250;60649;-42
2023/12/05 07:50:06;;;;;;;25.20;14.60;;;;;;;-147.86;100.00;45979.93;105867;1252;60081;-42
2023/12/05 07:52:33;;;;;;;26.00;15.20;;;;;;;-147.86;100.00;45960.35;105907;1257;72978;-40
2023/12/05 07:55:01;;;;;;;25.90;14.90;;;;;;;-147.86;100.00;45940.36;105836;1257;65677;-40
2023/12/05 07:57:29;;;;;;;28.10;14.70;;;;;;;-147.86;100.00;45923.91;105870;1258;72608;-46
2023/12/05 07:59:56;;;;;;;23.50;13.50;;;;;;;-147.86;100.00;45897.26;105894;1259;60605;-41
2023/12/05 08:02:24;;;;;;;34.00;15.10;;;;;;;-147.86;100.00;45872.18;105850;1257;59865;-43
2023/12/05 08:04:52;;;;;;;26.10;14.00;;;;;;;-147.86;100.00;45850.63;105822;1257;73050;-43
2023/12/05 08:07:20;;;;;;;25.90;14.50;;;;;;;-147.86;100.00;45825.16;105843;1257;64030;-41
2023/12/05 08:09:47;;;;;;;28.50;14.90;;;;;;;-147.86;100.00;45793.42;105926;1257;72178;-44
2023/12/05 08:12:15;;;;;;;27.10;15.10;;;;;;;-147.86;100.00;45769.13;105839;1255;61642;-42
2023/12/05 08:14:43;;;;;;;27.30;14.80;;;;;;;-147.86;100.00;45746.79;105864;1251;60575;-43
2023/12/05 08:17:11;;;;;;;26.70;14.10;;;;;;;-147.86;100.00;45721.32;105864;1256;73552;-42
2023/12/05 08:19:39;;;;;;;24.10;13.30;;;;;;;-147.86;100.00;45704.09;105889;1256;64356;-43
2023/12/05 08:22:06;;;;;;;22.60;12.80;;;;;;;-147.86;100.00;45703.69;105850;1257;73520;-43
2023/12/05 08:24:34;;;;;;;25.80;13.90;;;;;;;-147.86;100.00;45798.91;105883;1257;60501;-44
2023/12/05 08:27:02;;;;;;;26.20;15.10;;;;;;;-147.86;100.00;45889.42;105840;1251;60422;-41
2023/12/05 08:29:30;;;;;;;31.30;15.40;;;;;;;-147.86;100.00;45960.35;105952;1257;74475;-48
2023/12/05 08:31:57;;;;;;;20.30;12.80;;;;;;;-147.86;100.00;45994.83;105589;1251;64626;-43
2023/12/05 08:34:25;;;;;;;22.00;13.50;;;;;;;-147.86;100.00;46009.32;105593;1254;70506;-41
2023/12/05 08:36:53;;;;;;;25.50;14.20;;;;;;;-147.86;100.00;46020.69;105597;1262;60466;-44
2023/12/05 08:39:21;;;;;;;24.20;14.50;;;;;;;-147.86;100.00;46023.04;105765;1256;60325;-42
2023/12/05 08:41:48;;;;;;;25.40;15.10;;;;;;;-147.86;100.00;46023.82;105840;1251;73823;-42
2023/12/05 08:44:16;;;;;;;26.80;14.40;;;;;;;-147.86;100.00;46019.52;105915;1251;65226;-43
2023/12/05 08:46:44;;;;;;;28.30;14.80;;;;;;;-147.86;100.00;46016.77;105818;1257;74595;-45
2023/12/05 08:49:12;;;;;;;25.00;14.10;;;;;;;-147.86;100.00;46014.42;105841;1256;61173;-43
2023/12/05 08:51:40;;;;;;;22.50;13.80;;;;;;;-147.86;100.00;46013.25;105930;1259;60329;-43
2023/12/05 08:54:07;;;;;;;25.10;14.50;;;;;;;-147.86;100.00;46012.07;105916;1254;73838;-43
2023/12/05 08:56:35;;;;;;;25.60;13.70;;;;;;;-147.86;100.00;46008.54;105911;1251;65249;-44
2023/12/05 08:59:02;;;;;;;26.70;14.80;;;;;;;-147.86;100.00;46003.84;105827;1257;70813;-45
2023/12/05 09:01:30;;;;;;;25.00;14.80;;;;;;;-147.86;100.00;46004.23;105845;1258;60607;-43
2023/12/05 09:03:58;;;;;;;25.40;13.70;;;;;;;-147.86;100.00;46003.84;105860;1257;60361;-46
2023/12/05 09:06:26;;;;;;;22.10;13.60;;;;;;;-147.86;100.00;46001.49;105818;1252;72619;-46
2023/12/05 09:08:54;;;;;;;22.20;13.30;;;;;;;-147.86;100.00;46001.49;105851;1252;63979;-45
2023/12/05 09:11:22;;;;;;;25.40;13.50;;;;;;;-147.86;100.00;46000.31;105865;1254;72741;-42
2023/12/05 09:13:49;;;;;;;22.50;13.20;;;;;;;-147.86;100.00;46001.10;105921;1258;60489;-44
2023/12/05 09:16:17;;;;;;;23.40;13.60;;;;;;;-147.86;100.00;46000.32;105826;1254;60775;-41
2023/12/05 09:18:45;;;;;;;26.10;13.70;;;;;;;-147.86;100.00;46001.88;105885;1257;74550;-44
2023/12/05 09:21:13;;;;;;;25.40;14.30;;;;;;;-147.86;100.00;46001.88;105836;1253;63941;-45
2023/12/05 09:23:40;;;;;;;21.50;12.60;;;;;;;-147.86;100.00;46000.71;105849;1257;71826;-41
2023/12/05 09:26:09;;;;;;;23.50;13.90;;;;;;;-147.86;100.00;45999.53;105808;1258;60629;-40
2023/12/05 09:28:37;;;;;;;25.70;14.30;;;;;;;-147.86;100.00;45999.54;105753;1254;60330;-39
2023/12/05 09:31:05;;;;;;;28.90;15.10;;;;;;;-147.86;100.00;46001.49;105917;1257;72320;-40
2023/12/05 09:33:32;;;;;;;24.50;13.60;;;;;;;-147.86;100.00;46000.31;105860;1257;65916;-42
2023/12/05 09:36:00;;;;;;;24.40;14.10;;;;;;;-147.86;100.00;46000.32;105843;1254;72606;-44
2023/12/05 09:38:28;;;;;;;26.30;14.40;;;;;;;-147.86;100.00;46002.27;105886;1258;60530;-45
2023/12/05 09:40:56;;;;;;;25.50;14.10;;;;;;;-147.86;100.00;46000.71;105866;1257;60493;-45
2023/12/05 09:43:24;;;;;;;26.00;14.20;;;;;;;-147.86;100.00;46004.63;105857;1256;73708;-43
2023/12/05 09:46:02;;;;;;;19.80;13.00;;;;;;;-147.86;100.00;46006.98;105735;1254;65688;-40
2023/12/05 09:48:32;;;;;;;22.80;13.20;;;;;;;-147.86;100.00;46006.20;105833;1254;71371;-41
2023/12/05 09:51:00;;;;;;;25.70;12.90;;;;;;;-147.86;100.00;46006.58;105904;1255;60775;-41
2023/12/05 09:53:28;;;;;;;23.00;12.30;;;;;;;-147.86;100.00;46007.76;105809;1252;60322;-41
2023/12/05 09:55:56;;;;;;;18.60;12.40;;;;;;;-147.86;100.00;46006.98;105823;1254;72566;-44
2023/12/05 09:58:23;;;;;;;22.00;11.40;;;;;;;-147.86;100.00;46010.11;105920;1254;64032;-43
2023/12/05 10:00:54;;;;;;;23.20;13.10;;;;;;;-147.86;100.00;46007.76;105859;1254;71449;-46
2023/12/05 10:03:22;;;;;;;23.80;11.60;;;;;;;-147.86;100.00;46009.72;105925;1252;60530;-40
2023/12/05 10:05:50;;;;;;;19.70;12.40;;;;;;;-147.86;100.00;46010.11;105723;1251;60976;-44
2023/12/05 10:08:17;;;;;;;21.90;13.40;;;;;;;-147.86;100.00;46013.24;105665;1251;72580;-43
2023/12/05 10:10:47;;;;;;;23.00;12.40;;;;;;;-147.86;100.00;46010.89;105685;1259;63937;-43
2023/12/05 10:13:14;;;;;;;22.80;12.90;;;;;;;-147.86;100.00;46012.86;105882;1258;72610;-42
2023/12/05 10:15:43;;;;;;;21.90;12.90;;;;;;;-147.86;100.00;46007.76;105872;1251;60891;-44
2023/12/05 10:18:10;;;;;;;23.80;13.40;;;;;;;-147.86;100.00;46009.32;105914;1257;60508;-44
2023/12/05 10:20:39;;;;;;;24.00;13.00;;;;;;;-147.86;100.00;46008.15;105907;1251;72636;-44
2023/12/05 10:23:06;;;;;;;23.00;13.00;;;;;;;-147.86;100.00;46010.11;105838;1257;63913;-43
2023/12/05 10:25:35;;;;;;;22.90;13.80;;;;;;;-147.86;100.00;46015.21;105897;1254;71378;-41
2023/12/05 10:28:05;;;;;;;25.30;14.00;;;;;;;-147.86;100.00;46014.03;105740;1254;61171;-42
2023/12/05 10:30:33;;;;;;;24.20;13.60;;;;;;;-147.86;100.00;46011.29;105908;1251;60460;-45
2023/12/05 10:33:11;;;;;;;23.30;13.60;;;;;;;-147.86;100.00;46010.50;105922;1251;74343;-42
2023/12/05 10:35:41;;;;;;;21.50;13.40;;;;;;;-147.86;100.00;46008.54;105952;1251;65336;-42
2023/12/05 10:38:11;;;;;;;23.70;13.10;;;;;;;-147.86;100.00;46006.58;105931;1257;73257;-41
2023/12/05 10:40:52;;;;;;;20.40;12.00;;;;;;;-147.86;100.00;46005.80;105888;1254;60548;-43
2023/12/05 10:43:21;;;;;;;21.10;13.10;;;;;;;-147.86;100.00;46008.93;105912;1257;60450;-44
2023/12/05 10:45:49;;;;;;;22.40;12.80;;;;;;;-147.86;100.00;46010.11;105905;1257;74241;-44
2023/12/05 10:48:17;;;;;;;20.60;12.70;;;;;;;-147.86;100.00;46011.68;105970;1251;65191;-44
2023/12/05 10:50:46;;;;;;;22.30;11.60;;;;;;;-147.86;100.00;46010.51;105951;1250;73507;-44
2023/12/05 10:53:15;;;;;;;19.90;11.70;;;;;;;-147.86;100.00;46008.93;105898;1257;60518;-45